Time;durP1;ratioP1;P1;durP2;ratioP2;P2;SDS_P1;SDS_P2;PMS_P1;PMS_P2;Temp;Humidity;BMP_temperature;BMP_pressure;BME280_temperature;BME280_humidity;BME280_pressure;Samples;Min_cycle;Max_cycle;Signal;HPM_P1;HPM_P2
2022/12/21 00:00:53;;;;;;;4.90;3.87;;;;;;;;;;5097917;28;20208;-85
2022/12/21 00:03:21;;;;;;;4.17;3.57;;;;;;;;;;5094551;28;20256;-85
2022/12/21 00:05:48;;;;;;;6.63;3.20;;;;;;;;;;5097788;28;20678;-85
2022/12/21 00:08:14;;;;;;;4.80;3.63;;;;;;;;;;5112791;28;20260;-85
2022/12/21 00:10:41;;;;;;;5.43;4.00;;;;;;;;;;5113018;28;20212;-85
2022/12/21 00:13:09;;;;;;;4.17;3.27;;;;;;;;;;5102891;28;20208;-86
2022/12/21 00:15:36;;;;;;;3.67;3.17;;;;;;;;;;5107053;28;20246;-85
2022/12/21 00:18:04;;;;;;;5.07;3.07;;;;;;;;;;5111726;28;20264;-85
2022/12/21 00:20:31;;;;;;;3.90;3.50;;;;;;;;;;5098060;28;20623;-86
2022/12/21 00:22:58;;;;;;;3.90;3.40;;;;;;;;;;5112585;28;20976;-85
2022/12/21 00:25:25;;;;;;;3.77;3.27;;;;;;;;;;5111896;28;20211;-85
2022/12/21 00:27:52;;;;;;;5.40;3.37;;;;;;;;;;5112627;28;20272;-86
2022/12/21 00:30:19;;;;;;;3.40;3.10;;;;;;;;;;5111484;28;20199;-85
2022/12/21 00:32:46;;;;;;;4.30;3.23;;;;;;;;;;5110866;28;20210;-86
2022/12/21 00:35:14;;;;;;;5.57;3.43;;;;;;;;;;5106408;28;20288;-86
2022/12/21 00:37:41;;;;;;;4.37;3.33;;;;;;;;;;5103094;28;20669;-86
2022/12/21 00:40:09;;;;;;;4.97;4.00;;;;;;;;;;5108498;28;20200;-85
2022/12/21 00:42:36;;;;;;;10.97;6.90;;;;;;;;;;5103534;28;20204;-86
2022/12/21 00:45:04;;;;;;;19.40;12.40;;;;;;;;;;5107795;28;20683;-84
2022/12/21 00:47:31;;;;;;;21.57;13.90;;;;;;;;;;5102687;28;20651;-85
2022/12/21 00:49:58;;;;;;;21.80;14.37;;;;;;;;;;5111837;28;20211;-85
2022/12/21 00:52:28;;;;;;;23.67;15.83;;;;;;;;;;5095622;28;20628;-85
2022/12/21 00:54:56;;;;;;;15.93;9.23;;;;;;;;;;5097264;28;20798;-86
2022/12/21 00:57:23;;;;;;;11.67;5.43;;;;;;;;;;5097970;28;20260;-86
2022/12/21 00:59:50;;;;;;;19.63;11.77;;;;;;;;;;5093829;28;20199;-86
2022/12/21 01:02:18;;;;;;;18.30;10.70;;;;;;;;;;5110371;28;20203;-86
2022/12/21 01:04:45;;;;;;;18.93;9.43;;;;;;;;;;5105920;28;20265;-86
2022/12/21 01:07:12;;;;;;;9.07;6.07;;;;;;;;;;5105072;28;20195;-89
2022/12/21 01:09:41;;;;;;;7.80;5.17;;;;;;;;;;5111603;28;20208;-85
2022/12/21 01:12:08;;;;;;;6.10;5.23;;;;;;;;;;5111682;28;20689;-86
2022/12/21 01:14:35;;;;;;;5.83;4.47;;;;;;;;;;5111194;28;20231;-86
2022/12/21 01:17:02;;;;;;;4.70;4.00;;;;;;;;;;5111510;28;20215;-86
2022/12/21 01:19:29;;;;;;;5.73;3.87;;;;;;;;;;5110158;28;20215;-86
2022/12/21 01:21:56;;;;;;;4.70;4.17;;;;;;;;;;5111824;28;20248;-86
2022/12/21 01:24:23;;;;;;;4.77;3.40;;;;;;;;;;5094027;28;20252;-86
2022/12/21 01:26:52;;;;;;;3.70;3.23;;;;;;;;;;5110507;28;20214;-85
2022/12/21 01:29:19;;;;;;;3.20;2.67;;;;;;;;;;5100638;28;20742;-86
2022/12/21 01:31:46;;;;;;;8.47;3.63;;;;;;;;;;5093124;28;20329;-86
2022/12/21 01:34:14;;;;;;;2.60;2.40;;;;;;;;;;5114771;27;20649;-88
2022/12/21 01:36:40;;;;;;;6.57;3.27;;;;;;;;;;5110618;28;20234;-85
2022/12/21 01:39:07;;;;;;;12.47;9.60;;;;;;;;;;5109995;28;20204;-86
2022/12/21 01:41:34;;;;;;;6.97;5.33;;;;;;;;;;5123701;28;20672;-86
2022/12/21 01:44:04;;;;;;;6.57;5.17;;;;;;;;;;5109565;28;20271;-86
2022/12/21 01:46:33;;;;;;;4.43;3.60;;;;;;;;;;5117409;28;20732;-86
2022/12/21 01:49:05;;;;;;;3.70;3.37;;;;;;;;;;5111740;28;20207;-86
2022/12/21 01:51:34;;;;;;;4.33;3.40;;;;;;;;;;5106027;28;20252;-86
2022/12/21 01:54:05;;;;;;;5.17;4.67;;;;;;;;;;5110468;28;20651;-86
2022/12/21 01:56:33;;;;;;;3.33;2.80;;;;;;;;;;5093819;28;20223;-87
2022/12/21 01:59:08;;;;;;;3.83;3.13;;;;;;;;;;5105216;28;20211;-87
2022/12/21 02:01:35;;;;;;;4.37;3.10;;;;;;;;;;5111511;28;20206;-87
2022/12/21 02:04:02;;;;;;;8.50;4.53;;;;;;;;;;5110351;28;20203;-87
2022/12/21 02:06:32;;;;;;;7.77;4.03;;;;;;;;;;5093357;28;20694;-86
2022/12/21 02:09:00;;;;;;;6.53;4.50;;;;;;;;;;5111603;28;20196;-87
2022/12/21 02:11:27;;;;;;;5.63;4.60;;;;;;;;;;5110353;28;20250;-87
2022/12/21 02:13:54;;;;;;;5.17;3.97;;;;;;;;;;5111310;28;20231;-87
2022/12/21 02:16:27;;;;;;;6.60;4.07;;;;;;;;;;5109601;28;20702;-87
2022/12/21 02:19:23;;;;;;;11.93;8.13;;;;;;;;;;5104087;28;20670;-87
2022/12/21 02:21:53;;;;;;;16.20;10.70;;;;;;;;;;5106513;28;20277;-86
2022/12/21 02:24:48;;;;;;;17.40;12.00;;;;;;;;;;5093404;28;20240;-87
2022/12/21 02:27:46;;;;;;;16.87;10.73;;;;;;;;;;5100853;28;20261;-86
2022/12/21 02:30:16;;;;;;;12.57;7.90;;;;;;;;;;5115225;27;20210;-85
2022/12/21 02:33:02;;;;;;;11.50;7.70;;;;;;;;;;5113914;28;20204;-86
2022/12/21 02:35:38;;;;;;;20.53;10.43;;;;;;;;;;5103618;28;20219;-87
2022/12/21 02:38:14;;;;;;;25.43;13.33;;;;;;;;;;5101910;28;20245;-87
2022/12/21 02:40:45;;;;;;;38.03;19.40;;;;;;;;;;5107189;28;20208;-86
2022/12/21 02:46:05;;;;;;;27.53;15.97;;;;;;;;;;5101430;28;20583;-85
2022/12/21 02:48:36;;;;;;;12.47;8.53;;;;;;;;;;5101268;28;20252;-85
2022/12/21 02:51:07;;;;;;;9.33;4.70;;;;;;;;;;5114489;28;20203;-85
2022/12/21 02:53:36;;;;;;;5.90;3.97;;;;;;;;;;5105765;28;20205;-85
2022/12/21 02:56:03;;;;;;;5.53;3.50;;;;;;;;;;5110059;28;20234;-85
2022/12/21 02:58:30;;;;;;;3.00;2.53;;;;;;;;;;5112876;28;20207;-85
2022/12/21 03:01:06;;;;;;;3.67;3.23;;;;;;;;;;5113102;28;20200;-87
2022/12/21 03:04:04;;;;;;;3.27;2.73;;;;;;;;;;5114686;28;20206;-86
2022/12/21 03:06:54;;;;;;;5.17;3.33;;;;;;;;;;5103198;28;20199;-86
2022/12/21 03:09:29;;;;;;;4.47;3.23;;;;;;;;;;5113140;28;20646;-89
2022/12/21 03:12:00;;;;;;;7.27;3.13;;;;;;;;;;5100759;28;20195;-87
2022/12/21 03:14:40;;;;;;;6.43;3.07;;;;;;;;;;5106874;28;20255;-85
2022/12/21 03:17:14;;;;;;;4.27;2.67;;;;;;;;;;5109319;28;20223;-86
2022/12/21 03:19:50;;;;;;;4.57;3.20;;;;;;;;;;5114630;27;20195;-86
2022/12/21 03:22:22;;;;;;;2.93;2.37;;;;;;;;;;5110079;28;20211;-87
2022/12/21 03:24:52;;;;;;;3.10;2.80;;;;;;;;;;5105681;28;20208;-87
2022/12/21 03:27:23;;;;;;;3.07;2.60;;;;;;;;;;5113909;28;20631;-87
2022/12/21 03:29:53;;;;;;;3.63;2.70;;;;;;;;;;5099899;27;20209;-87
2022/12/21 03:32:23;;;;;;;2.57;2.37;;;;;;;;;;5112507;27;20743;-87
2022/12/21 03:34:53;;;;;;;4.13;3.00;;;;;;;;;;5104849;28;20268;-85
2022/12/21 03:37:23;;;;;;;5.10;3.30;;;;;;;;;;5110464;28;20227;-86
2022/12/21 03:39:56;;;;;;;8.40;4.87;;;;;;;;;;5113373;28;20686;-85
2022/12/21 03:42:24;;;;;;;15.97;11.90;;;;;;;;;;5102009;28;20200;-85
2022/12/21 03:44:54;;;;;;;19.33;17.30;;;;;;;;;;5113217;28;20739;-86
2022/12/21 03:47:24;;;;;;;18.90;12.60;;;;;;;;;;5100962;28;20276;-85
2022/12/21 03:49:55;;;;;;;10.27;5.97;;;;;;;;;;5113636;27;20207;-85
2022/12/21 03:52:23;;;;;;;6.07;3.87;;;;;;;;;;5114060;28;20207;-87
2022/12/21 03:54:54;;;;;;;3.80;2.83;;;;;;;;;;5112124;28;20231;-87
2022/12/21 03:57:22;;;;;;;3.73;2.87;;;;;;;;;;5113364;28;20219;-86
2022/12/21 03:59:50;;;;;;;5.43;4.87;;;;;;;;;;5110336;28;20204;-90
2022/12/21 04:02:23;;;;;;;10.30;4.37;;;;;;;;;;5099471;28;20216;-90
2022/12/21 04:04:56;;;;;;;4.60;3.07;;;;;;;;;;5113012;28;20211;-88
2022/12/21 04:07:25;;;;;;;6.73;4.57;;;;;;;;;;5114364;27;20264;-90
2022/12/21 04:09:58;;;;;;;9.17;4.80;;;;;;;;;;5112880;28;20268;-90
2022/12/21 04:12:40;;;;;;;4.93;3.23;;;;;;;;;;5114001;28;20286;-89
2022/12/21 04:15:09;;;;;;;2.53;2.27;;;;;;;;;;5109051;28;20220;-87
2022/12/21 04:17:37;;;;;;;3.07;2.17;;;;;;;;;;5097735;28;20215;-86
2022/12/21 04:20:08;;;;;;;2.57;2.37;;;;;;;;;;5106217;28;20196;-85
2022/12/21 04:28:09;;;;;;;9.40;5.70;;;;;;;;;;5111963;28;20251;-85
2022/12/21 04:30:38;;;;;;;3.93;3.23;;;;;;;;;;5112696;28;20208;-86
2022/12/21 04:33:05;;;;;;;4.60;3.27;;;;;;;;;;5099590;28;20679;-85
2022/12/21 04:35:34;;;;;;;3.40;3.10;;;;;;;;;;5105577;28;20284;-85
2022/12/21 04:38:01;;;;;;;9.33;6.03;;;;;;;;;;5112405;27;20939;-85
2022/12/21 04:40:30;;;;;;;9.27;6.83;;;;;;;;;;5112678;27;20278;-85
2022/12/21 04:42:57;;;;;;;10.73;6.90;;;;;;;;;;5110944;28;20701;-85
2022/12/21 04:45:23;;;;;;;9.03;6.17;;;;;;;;;;5110505;28;20191;-85
2022/12/21 04:47:53;;;;;;;8.20;5.73;;;;;;;;;;5112658;28;20199;-89
2022/12/21 04:50:20;;;;;;;6.07;4.50;;;;;;;;;;5109756;28;20290;-88
2022/12/21 04:52:49;;;;;;;5.77;4.30;;;;;;;;;;5098683;28;20212;-86
2022/12/21 04:55:16;;;;;;;15.80;10.73;;;;;;;;;;5111724;28;20206;-84
2022/12/21 04:57:43;;;;;;;14.70;10.73;;;;;;;;;;5112031;28;20284;-86
2022/12/21 05:00:11;;;;;;;38.13;23.17;;;;;;;;;;5096796;28;20208;-86
2022/12/21 05:02:39;;;;;;;54.77;31.47;;;;;;;;;;5110952;28;20260;-86
2022/12/21 05:05:07;;;;;;;34.30;22.67;;;;;;;;;;5110557;28;20681;-89
2022/12/21 05:07:34;;;;;;;14.37;10.93;;;;;;;;;;5093844;28;20199;-87
2022/12/21 05:10:03;;;;;;;11.40;10.00;;;;;;;;;;5092562;28;20260;-86
2022/12/21 05:12:30;;;;;;;50.57;35.27;;;;;;;;;;5098218;28;20588;-88
2022/12/21 05:14:56;;;;;;;72.23;47.10;;;;;;;;;;5106254;28;20243;-85
2022/12/21 05:17:24;;;;;;;49.70;34.60;;;;;;;;;;5108242;28;20234;-83
2022/12/21 05:19:52;;;;;;;60.77;43.30;;;;;;;;;;5076713;28;20204;-90
2022/12/21 05:22:20;;;;;;;38.50;29.03;;;;;;;;;;5111929;28;20268;-87
2022/12/21 05:24:47;;;;;;;23.43;18.40;;;;;;;;;;5096924;28;20204;-83
2022/12/21 05:27:16;;;;;;;32.67;20.60;;;;;;;;;;5111515;28;20204;-83
2022/12/21 05:29:43;;;;;;;22.03;17.83;;;;;;;;;;5109765;28;20260;-83
2022/12/21 05:32:09;;;;;;;8.87;7.83;;;;;;;;;;5110246;28;20682;-83
2022/12/21 05:34:36;;;;;;;67.57;47.63;;;;;;;;;;5102311;28;20200;-83
2022/12/21 05:37:03;;;;;;;93.13;58.17;;;;;;;;;;5108801;28;20657;-83
2022/12/21 05:39:32;;;;;;;69.33;39.10;;;;;;;;;;5101228;28;20690;-83
2022/12/21 05:41:59;;;;;;;29.67;17.33;;;;;;;;;;5099706;28;20224;-83
2022/12/21 05:44:29;;;;;;;29.43;19.23;;;;;;;;;;5109319;27;20199;-83
2022/12/21 05:46:56;;;;;;;13.13;7.97;;;;;;;;;;5092398;28;20265;-84
2022/12/21 05:49:22;;;;;;;23.07;17.17;;;;;;;;;;5101026;28;20208;-84
2022/12/21 05:51:50;;;;;;;11.47;9.10;;;;;;;;;;5109187;28;20849;-84
2022/12/21 05:54:17;;;;;;;5.60;4.33;;;;;;;;;;5108545;28;20755;-83
2022/12/21 05:56:43;;;;;;;4.40;4.00;;;;;;;;;;5096730;28;20215;-84
2022/12/21 05:59:10;;;;;;;8.63;7.07;;;;;;;;;;5098918;28;20273;-83
2022/12/21 06:01:38;;;;;;;19.40;12.40;;;;;;;;;;5110423;28;20240;-84
2022/12/21 06:04:05;;;;;;;16.40;12.97;;;;;;;;;;5114432;28;20282;-85
2022/12/21 06:06:32;;;;;;;11.17;9.47;;;;;;;;;;5113813;28;20207;-84
2022/12/21 06:08:59;;;;;;;12.83;8.67;;;;;;;;;;5114506;28;20272;-83
2022/12/21 06:11:27;;;;;;;8.23;7.20;;;;;;;;;;5114649;28;20211;-84
2022/12/21 06:13:54;;;;;;;55.63;33.87;;;;;;;;;;5115091;28;20318;-82
2022/12/21 06:16:23;;;;;;;34.83;25.40;;;;;;;;;;5114638;28;20310;-85
2022/12/21 06:18:52;;;;;;;11.27;8.07;;;;;;;;;;5114794;28;20199;-83
2022/12/21 06:21:19;;;;;;;9.83;8.00;;;;;;;;;;5114715;28;20214;-84
2022/12/21 06:23:47;;;;;;;10.53;7.63;;;;;;;;;;5114782;28;20259;-83
2022/12/21 06:26:15;;;;;;;7.50;4.30;;;;;;;;;;5114540;28;20204;-83
2022/12/21 06:28:42;;;;;;;3.87;3.17;;;;;;;;;;5107642;28;20199;-83
2022/12/21 06:31:11;;;;;;;10.80;7.80;;;;;;;;;;5104656;28;20204;-84
2022/12/21 06:33:41;;;;;;;13.37;11.07;;;;;;;;;;5113679;28;20244;-88
2022/12/21 06:36:10;;;;;;;14.60;11.03;;;;;;;;;;5114655;28;20272;-84
2022/12/21 06:38:40;;;;;;;22.70;16.93;;;;;;;;;;5114430;28;20237;-84
2022/12/21 06:41:09;;;;;;;24.67;17.33;;;;;;;;;;5113879;28;20204;-84
2022/12/21 06:43:36;;;;;;;20.10;14.20;;;;;;;;;;5114270;28;20218;-84
2022/12/21 06:46:05;;;;;;;14.67;9.60;;;;;;;;;;5114063;28;20685;-85
2022/12/21 06:48:33;;;;;;;17.20;11.17;;;;;;;;;;5100903;28;20211;-85
2022/12/21 06:51:06;;;;;;;14.90;10.17;;;;;;;;;;5114212;27;20200;-84
2022/12/21 06:53:36;;;;;;;41.80;27.57;;;;;;;;;;5106363;28;20578;-84
2022/12/21 06:56:05;;;;;;;45.37;28.37;;;;;;;;;;5107112;28;20216;-84
2022/12/21 06:58:32;;;;;;;21.37;15.67;;;;;;;;;;5093428;28;20200;-83
2022/12/21 07:01:05;;;;;;;17.50;13.27;;;;;;;;;;5110192;28;20215;-84
2022/12/21 07:03:32;;;;;;;15.07;11.57;;;;;;;;;;5113960;28;20288;-83
2022/12/21 07:05:59;;;;;;;10.90;9.53;;;;;;;;;;5113942;28;20639;-84
2022/12/21 07:08:25;;;;;;;17.00;12.87;;;;;;;;;;5114204;28;20211;-83
2022/12/21 07:10:57;;;;;;;15.57;13.03;;;;;;;;;;5113221;27;20658;-85
2022/12/21 07:13:25;;;;;;;13.10;9.97;;;;;;;;;;5112185;28;20199;-85
2022/12/21 07:15:54;;;;;;;15.80;10.93;;;;;;;;;;5113978;27;20200;-84
2022/12/21 07:18:22;;;;;;;16.87;12.87;;;;;;;;;;5113816;28;20663;-84
2022/12/21 07:20:49;;;;;;;46.37;36.63;;;;;;;;;;5114334;28;20276;-86
2022/12/21 07:23:16;;;;;;;25.03;19.67;;;;;;;;;;5114271;28;20199;-84
2022/12/21 07:25:42;;;;;;;23.60;17.00;;;;;;;;;;5108939;28;20675;-86
2022/12/21 07:28:11;;;;;;;21.87;14.77;;;;;;;;;;5106193;28;20215;-86
2022/12/21 07:30:37;;;;;;;22.83;14.97;;;;;;;;;;5113146;28;20678;-86
2022/12/21 07:33:04;;;;;;;22.03;14.27;;;;;;;;;;5100771;28;20200;-86
2022/12/21 07:35:32;;;;;;;18.97;14.03;;;;;;;;;;5112680;28;20207;-87
2022/12/21 07:37:58;;;;;;;23.27;15.70;;;;;;;;;;5113529;28;20296;-85
2022/12/21 07:40:25;;;;;;;17.47;14.60;;;;;;;;;;5113043;28;20256;-86
2022/12/21 07:42:52;;;;;;;16.13;11.63;;;;;;;;;;5113663;28;20207;-85
2022/12/21 07:45:20;;;;;;;22.43;15.93;;;;;;;;;;5112976;28;20196;-86
2022/12/21 07:47:47;;;;;;;20.43;18.23;;;;;;;;;;5113499;28;20203;-85
2022/12/21 07:50:14;;;;;;;16.50;13.97;;;;;;;;;;5112825;28;20200;-87
2022/12/21 07:52:41;;;;;;;22.83;16.37;;;;;;;;;;5099740;28;20205;-86
2022/12/21 07:55:09;;;;;;;20.37;14.77;;;;;;;;;;5112691;28;20629;-85
2022/12/21 07:57:35;;;;;;;18.67;14.73;;;;;;;;;;5112849;28;20264;-87
2022/12/21 08:00:03;;;;;;;17.73;11.73;;;;;;;;;;5112634;27;20239;-87
2022/12/21 08:02:31;;;;;;;16.73;11.57;;;;;;;;;;5112720;28;20681;-86
2022/12/21 08:04:58;;;;;;;18.40;11.40;;;;;;;;;;5113651;27;20706;-85
2022/12/21 08:07:25;;;;;;;13.93;11.13;;;;;;;;;;5111826;28;20682;-86
2022/12/21 08:09:52;;;;;;;17.03;11.53;;;;;;;;;;5092592;28;20208;-87
2022/12/21 08:12:18;;;;;;;11.40;8.27;;;;;;;;;;5108110;28;20252;-86
2022/12/21 08:14:45;;;;;;;7.43;5.83;;;;;;;;;;5103875;28;20649;-86
2022/12/21 08:17:12;;;;;;;9.30;6.87;;;;;;;;;;5107942;28;20280;-86
2022/12/21 08:19:40;;;;;;;7.33;5.90;;;;;;;;;;5112636;28;20620;-84
2022/12/21 08:22:07;;;;;;;5.60;5.00;;;;;;;;;;5112362;28;20199;-85
2022/12/21 08:24:33;;;;;;;5.80;4.70;;;;;;;;;;5112273;28;20203;-85
2022/12/21 08:27:00;;;;;;;6.47;5.37;;;;;;;;;;5112204;27;20693;-84
2022/12/21 08:29:27;;;;;;;6.27;5.67;;;;;;;;;;5112176;28;20210;-85
2022/12/21 08:31:54;;;;;;;10.80;6.90;;;;;;;;;;5112036;28;20203;-85
2022/12/21 08:34:20;;;;;;;8.50;5.50;;;;;;;;;;5112236;28;20195;-85
2022/12/21 08:36:48;;;;;;;12.37;7.57;;;;;;;;;;5111964;28;20199;-86
2022/12/21 08:39:15;;;;;;;8.80;6.53;;;;;;;;;;5112739;28;20195;-85
2022/12/21 08:41:42;;;;;;;10.17;6.47;;;;;;;;;;5111910;28;20627;-85
2022/12/21 08:44:09;;;;;;;9.63;8.10;;;;;;;;;;5111920;28;20204;-85
2022/12/21 08:46:36;;;;;;;7.87;5.67;;;;;;;;;;5112003;28;20218;-85
2022/12/21 08:49:03;;;;;;;7.30;4.13;;;;;;;;;;5111943;28;20203;-85
2022/12/21 08:51:30;;;;;;;4.00;2.80;;;;;;;;;;5111939;28;20204;-84
2022/12/21 08:53:58;;;;;;;4.53;3.93;;;;;;;;;;5112273;28;20264;-84
2022/12/21 08:56:25;;;;;;;8.60;5.13;;;;;;;;;;5111534;28;20199;-85
2022/12/21 08:58:52;;;;;;;8.03;4.17;;;;;;;;;;5111631;28;20724;-84
2022/12/21 09:01:19;;;;;;;8.27;5.30;;;;;;;;;;5111416;28;20286;-84
2022/12/21 09:03:46;;;;;;;7.63;5.77;;;;;;;;;;5111447;28;20231;-84
2022/12/21 09:06:13;;;;;;;7.57;4.40;;;;;;;;;;5111299;28;20256;-84
2022/12/21 09:08:40;;;;;;;6.83;6.10;;;;;;;;;;5111933;28;20290;-84
2022/12/21 09:11:10;;;;;;;8.37;6.07;;;;;;;;;;5111629;28;20282;-85
2022/12/21 09:13:37;;;;;;;9.13;6.40;;;;;;;;;;5111697;28;21572;-85
2022/12/21 09:16:10;;;;;;;8.67;6.97;;;;;;;;;;5111792;28;20195;-84
2022/12/21 09:18:37;;;;;;;10.70;7.53;;;;;;;;;;5110773;28;20235;-85
2022/12/21 09:21:04;;;;;;;9.37;6.07;;;;;;;;;;5098609;28;20188;-87
2022/12/21 09:23:32;;;;;;;8.07;6.73;;;;;;;;;;5109643;28;20207;-84
2022/12/21 09:25:59;;;;;;;10.47;6.87;;;;;;;;;;5098817;28;20591;-84
2022/12/21 09:28:28;;;;;;;12.33;9.43;;;;;;;;;;5111147;28;21207;-85
2022/12/21 09:30:55;;;;;;;7.93;5.40;;;;;;;;;;5111414;28;20210;-84
2022/12/21 09:33:23;;;;;;;8.50;7.10;;;;;;;;;;5111413;28;20198;-85
2022/12/21 09:35:52;;;;;;;10.23;6.20;;;;;;;;;;5110722;28;20195;-84
2022/12/21 09:38:19;;;;;;;8.37;6.60;;;;;;;;;;5111227;28;20721;-85
2022/12/21 09:40:46;;;;;;;10.27;6.40;;;;;;;;;;5110963;28;20202;-85
2022/12/21 09:43:18;;;;;;;11.67;7.50;;;;;;;;;;5110632;28;20293;-85
2022/12/21 09:45:52;;;;;;;8.20;6.43;;;;;;;;;;5110792;28;20271;-85
2022/12/21 09:48:22;;;;;;;12.93;10.17;;;;;;;;;;5111244;28;20248;-85
2022/12/21 09:50:53;;;;;;;9.77;7.23;;;;;;;;;;5110783;28;20200;-85
2022/12/21 09:53:25;;;;;;;12.93;9.43;;;;;;;;;;5110781;28;20627;-85
2022/12/21 09:55:54;;;;;;;9.30;6.23;;;;;;;;;;5097258;28;20756;-86
2022/12/21 09:58:23;;;;;;;12.27;8.37;;;;;;;;;;5098225;28;20280;-85
2022/12/21 10:00:56;;;;;;;11.00;8.10;;;;;;;;;;5110771;28;20282;-85
2022/12/21 10:03:35;;;;;;;12.10;7.57;;;;;;;;;;5110817;28;20207;-85
2022/12/21 10:06:24;;;;;;;14.37;8.83;;;;;;;;;;5110975;28;20207;-85
2022/12/21 10:09:03;;;;;;;9.37;6.57;;;;;;;;;;5110806;28;20203;-85
2022/12/21 10:11:42;;;;;;;21.27;13.80;;;;;;;;;;5110499;28;20204;-82
2022/12/21 10:14:16;;;;;;;10.10;6.50;;;;;;;;;;5110899;28;20223;-92
2022/12/21 10:16:51;;;;;;;11.93;7.97;;;;;;;;;;5110469;28;20199;-84
2022/12/21 10:19:22;;;;;;;8.37;6.07;;;;;;;;;;5110631;28;20704;-84
2022/12/21 10:21:56;;;;;;;9.60;6.63;;;;;;;;;;5110377;28;20264;-84
2022/12/21 10:24:26;;;;;;;7.47;5.23;;;;;;;;;;5110778;28;20234;-82
2022/12/21 10:26:56;;;;;;;7.00;5.97;;;;;;;;;;5096800;28;20691;-84
2022/12/21 10:29:30;;;;;;;8.03;5.87;;;;;;;;;;5110489;28;20199;-84
2022/12/21 10:31:59;;;;;;;8.83;5.60;;;;;;;;;;5110069;28;20199;-83
2022/12/21 10:34:32;;;;;;;9.60;7.10;;;;;;;;;;5110889;28;20191;-84
2022/12/21 10:37:01;;;;;;;10.37;7.83;;;;;;;;;;5110684;28;20199;-84
2022/12/21 10:39:29;;;;;;;10.23;7.13;;;;;;;;;;5110947;28;20295;-84
2022/12/21 10:42:03;;;;;;;7.70;6.13;;;;;;;;;;5110370;28;20199;-84
2022/12/21 10:44:29;;;;;;;7.60;6.03;;;;;;;;;;5110935;28;20199;-83
2022/12/21 10:46:56;;;;;;;11.27;6.83;;;;;;;;;;5111699;28;20207;-84
2022/12/21 10:49:28;;;;;;;7.40;5.80;;;;;;;;;;5114465;28;20276;-84
2022/12/21 10:51:54;;;;;;;8.33;5.80;;;;;;;;;;5113999;28;20199;-84
2022/12/21 10:54:26;;;;;;;7.37;5.67;;;;;;;;;;5113785;28;20628;-83
2022/12/21 10:56:53;;;;;;;9.03;6.10;;;;;;;;;;5114033;28;20235;-84
2022/12/21 10:59:24;;;;;;;12.13;7.00;;;;;;;;;;5113907;27;20725;-83
2022/12/21 11:01:51;;;;;;;11.10;6.70;;;;;;;;;;5113647;28;20670;-83
2022/12/21 11:04:29;;;;;;;8.23;5.60;;;;;;;;;;5114101;28;20203;-84
2022/12/21 11:07:00;;;;;;;13.03;7.70;;;;;;;;;;5113695;28;20582;-83
2022/12/21 11:09:30;;;;;;;7.97;6.90;;;;;;;;;;5114026;28;20208;-84
2022/12/21 11:11:56;;;;;;;13.57;7.23;;;;;;;;;;5113852;28;20208;-84
2022/12/21 11:14:23;;;;;;;10.40;7.37;;;;;;;;;;5113593;28;20223;-83
2022/12/21 11:16:50;;;;;;;13.30;9.13;;;;;;;;;;5113786;27;20195;-84
2022/12/21 11:19:18;;;;;;;13.47;10.60;;;;;;;;;;5113283;28;20763;-83
2022/12/21 11:21:48;;;;;;;12.50;9.60;;;;;;;;;;5113368;28;20257;-84
2022/12/21 11:24:17;;;;;;;13.67;10.67;;;;;;;;;;5100537;28;20624;-84
2022/12/21 11:26:46;;;;;;;8.83;7.37;;;;;;;;;;5113243;28;20203;-84
2022/12/21 11:29:19;;;;;;;9.03;7.90;;;;;;;;;;5113708;28;20284;-87
2022/12/21 11:31:48;;;;;;;11.77;7.83;;;;;;;;;;5099323;28;20208;-87
2022/12/21 11:34:24;;;;;;;9.03;7.57;;;;;;;;;;5113314;28;20225;-83
2022/12/21 11:36:57;;;;;;;10.87;7.57;;;;;;;;;;5113175;28;20199;-83
2022/12/21 11:39:24;;;;;;;11.80;8.57;;;;;;;;;;5113257;28;20226;-83
2022/12/21 11:41:52;;;;;;;10.87;8.80;;;;;;;;;;5113140;27;20274;-82
2022/12/21 11:44:23;;;;;;;13.67;9.43;;;;;;;;;;5113096;28;20211;-83
2022/12/21 11:46:58;;;;;;;20.27;14.27;;;;;;;;;;5113007;28;20200;-83
2022/12/21 11:50:05;;;;;;;52.17;28.90;;;;;;;;;;5098635;28;20265;-83
2022/12/21 11:52:47;;;;;;;38.97;19.03;;;;;;;;;;5075716;28;20203;-86
2022/12/21 11:55:18;;;;;;;87.67;38.70;;;;;;;;;;5112715;28;20585;-83
2022/12/21 11:57:51;;;;;;;135.00;51.83;;;;;;;;;;5112695;28;20257;-84
2022/12/21 12:00:19;;;;;;;175.83;69.87;;;;;;;;;;5112592;28;20286;-83
2022/12/21 12:03:17;;;;;;;141.77;59.97;;;;;;;;;;5112211;28;20290;-84
2022/12/21 12:06:09;;;;;;;77.37;39.17;;;;;;;;;;5112627;28;20207;-84
2022/12/21 12:08:50;;;;;;;75.53;40.80;;;;;;;;;;5112737;28;20256;-83
2022/12/21 12:11:25;;;;;;;22.23;14.40;;;;;;;;;;5112224;28;20204;-84
2022/12/21 12:14:16;;;;;;;10.73;9.10;;;;;;;;;;5098974;28;20292;-84
2022/12/21 12:16:55;;;;;;;14.13;9.97;;;;;;;;;;5109993;28;20211;-86
2022/12/21 12:19:29;;;;;;;11.33;7.57;;;;;;;;;;5112570;28;20326;-83
2022/12/21 12:22:09;;;;;;;16.03;11.97;;;;;;;;;;5111079;28;20206;-83
2022/12/21 12:24:49;;;;;;;17.63;11.63;;;;;;;;;;5101743;28;20204;-85
2022/12/21 12:27:27;;;;;;;23.17;17.33;;;;;;;;;;5112399;28;20199;-84
2022/12/21 12:30:03;;;;;;;11.13;8.37;;;;;;;;;;5112337;27;20252;-83
2022/12/21 12:32:39;;;;;;;12.03;8.87;;;;;;;;;;5112156;28;20285;-83
2022/12/21 12:35:18;;;;;;;16.60;12.20;;;;;;;;;;5112085;28;20211;-84
2022/12/21 12:37:52;;;;;;;14.97;10.17;;;;;;;;;;5112371;28;20207;-84
2022/12/21 12:40:26;;;;;;;17.07;10.77;;;;;;;;;;5107028;28;20230;-83
2022/12/21 12:42:56;;;;;;;17.00;11.83;;;;;;;;;;5105527;28;20199;-84
2022/12/21 12:45:32;;;;;;;17.17;11.47;;;;;;;;;;5112038;28;20199;-83
2022/12/21 12:48:08;;;;;;;12.13;9.80;;;;;;;;;;5111718;28;20666;-83
2022/12/21 12:50:38;;;;;;;9.97;7.80;;;;;;;;;;5111715;28;20199;-83
2022/12/21 12:53:22;;;;;;;14.60;10.30;;;;;;;;;;5111230;28;20245;-83
2022/12/21 12:55:57;;;;;;;12.17;10.37;;;;;;;;;;5112209;28;20191;-86
2022/12/21 12:58:31;;;;;;;12.80;10.27;;;;;;;;;;5099629;28;20598;-82
2022/12/21 13:01:06;;;;;;;9.30;7.57;;;;;;;;;;5109596;28;20659;-82
2022/12/21 13:03:55;;;;;;;9.00;7.87;;;;;;;;;;5101955;28;20203;-82
2022/12/21 13:06:30;;;;;;;10.10;8.47;;;;;;;;;;5111599;28;20249;-83
2022/12/21 13:09:02;;;;;;;20.90;13.10;;;;;;;;;;5111450;28;20279;-82
2022/12/21 13:11:36;;;;;;;13.83;10.20;;;;;;;;;;5110331;28;20298;-82
2022/12/21 13:14:06;;;;;;;18.23;12.47;;;;;;;;;;5111023;28;20242;-83
2022/12/21 13:16:38;;;;;;;37.87;22.90;;;;;;;;;;5111269;28;20673;-83
2022/12/21 13:19:07;;;;;;;45.10;26.33;;;;;;;;;;5111100;28;20278;-83
2022/12/21 13:21:35;;;;;;;35.87;22.10;;;;;;;;;;5111391;28;20203;-83
2022/12/21 13:24:06;;;;;;;16.07;8.73;;;;;;;;;;5097852;28;20259;-82
2022/12/21 13:26:38;;;;;;;8.50;7.57;;;;;;;;;;5110772;28;20200;-83
2022/12/21 13:29:11;;;;;;;10.80;6.67;;;;;;;;;;5111308;28;20631;-83
2022/12/21 13:31:42;;;;;;;7.53;6.17;;;;;;;;;;5110882;28;20203;-83
2022/12/21 13:34:18;;;;;;;7.93;6.40;;;;;;;;;;5111430;28;20191;-84
2022/12/21 13:36:46;;;;;;;10.17;7.10;;;;;;;;;;5110637;28;20210;-83
2022/12/21 13:39:18;;;;;;;12.80;9.30;;;;;;;;;;5111050;28;20223;-83
2022/12/21 13:41:51;;;;;;;10.27;8.90;;;;;;;;;;5111084;28;20272;-84
2022/12/21 13:44:28;;;;;;;8.43;6.90;;;;;;;;;;5111217;28;20747;-83
2022/12/21 13:46:56;;;;;;;7.90;7.10;;;;;;;;;;5110717;28;20203;-83
2022/12/21 13:49:28;;;;;;;9.77;7.60;;;;;;;;;;5111130;28;20272;-83
2022/12/21 13:51:56;;;;;;;17.53;12.43;;;;;;;;;;5111135;28;20694;-83
2022/12/21 13:54:32;;;;;;;9.53;7.50;;;;;;;;;;5110793;28;20667;-83
2022/12/21 13:57:10;;;;;;;9.50;6.80;;;;;;;;;;5111592;28;20637;-83
2022/12/21 13:59:46;;;;;;;7.50;6.53;;;;;;;;;;5110682;28;20713;-84
2022/12/21 14:02:26;;;;;;;7.80;6.63;;;;;;;;;;5111627;28;20203;-88
2022/12/21 14:04:54;;;;;;;6.43;5.77;;;;;;;;;;5098772;28;20203;-83
2022/12/21 14:08:07;;;;;;;6.20;5.10;;;;;;;;;;5110565;28;20245;-83
2022/12/21 14:10:41;;;;;;;14.03;8.50;;;;;;;;;;5084339;28;20682;-83
2022/12/21 14:13:37;;;;;;;9.73;6.87;;;;;;;;;;5110918;28;20244;-83
2022/12/21 14:16:15;;;;;;;15.90;11.00;;;;;;;;;;5110563;28;20191;-83
2022/12/21 14:18:42;;;;;;;26.30;15.77;;;;;;;;;;5110458;28;20209;-82
2022/12/21 14:21:10;;;;;;;32.00;19.83;;;;;;;;;;5110985;28;20196;-83
2022/12/21 14:23:45;;;;;;;26.30;20.43;;;;;;;;;;5101958;28;20257;-84
2022/12/21 14:26:35;;;;;;;22.10;15.17;;;;;;;;;;5114551;28;20730;-83
2022/12/21 14:29:13;;;;;;;30.57;20.50;;;;;;;;;;5114606;28;20204;-84
2022/12/21 14:31:48;;;;;;;32.40;23.07;;;;;;;;;;5114534;28;20215;-83
2022/12/21 14:34:16;;;;;;;41.10;24.53;;;;;;;;;;5114639;28;20255;-86
2022/12/21 14:37:08;;;;;;;18.83;12.60;;;;;;;;;;5114590;28;20296;-84
2022/12/21 14:39:38;;;;;;;25.60;16.10;;;;;;;;;;5114395;28;20312;-86
2022/12/21 14:42:35;;;;;;;16.53;10.90;;;;;;;;;;5101384;28;20569;-83
2022/12/21 14:45:20;;;;;;;26.50;16.07;;;;;;;;;;5114425;28;20206;-84
2022/12/21 14:48:02;;;;;;;21.87;11.97;;;;;;;;;;5100288;28;20208;-84
2022/12/21 14:50:49;;;;;;;18.63;11.47;;;;;;;;;;5114124;28;20763;-84
2022/12/21 14:53:32;;;;;;;29.20;21.53;;;;;;;;;;5114251;28;20199;-90
2022/12/21 14:56:05;;;;;;;19.80;12.07;;;;;;;;;;5114010;28;20207;-85
2022/12/21 14:58:34;;;;;;;17.27;12.80;;;;;;;;;;5114303;28;20199;-84
2022/12/21 15:01:20;;;;;;;19.60;13.87;;;;;;;;;;5113867;28;20227;-84